createdAt,value
2023-05-08T00:02:09.979Z,22.26
2023-05-08T00:04:36.731Z,22.26
2023-05-08T00:07:03.445Z,22.25
2023-05-08T00:09:30.121Z,22.25
2023-05-08T00:11:56.747Z,22.23
2023-05-08T00:14:23.316Z,22.22
2023-05-08T00:16:50.499Z,22.22
2023-05-08T00:19:17.118Z,22.21
2023-05-08T00:21:43.804Z,22.22
2023-05-08T00:24:10.399Z,22.21
2023-05-08T00:26:37.192Z,22.20
2023-05-08T00:29:05.515Z,22.19
2023-05-08T00:31:33.190Z,22.19
2023-05-08T00:36:35.235Z,22.18
2023-05-08T00:39:01.853Z,22.18
2023-05-08T00:41:28.467Z,22.17
2023-05-08T00:43:55.102Z,22.16
2023-05-08T00:46:24.270Z,22.16
2023-05-08T00:48:50.969Z,22.15
2023-05-08T00:51:17.579Z,22.14
2023-05-08T00:53:45.302Z,22.13
2023-05-08T00:56:13.753Z,22.12
2023-05-08T00:58:40.722Z,22.12
2023-05-08T01:01:07.383Z,22.12
2023-05-08T01:03:35.735Z,22.11
2023-05-08T01:06:06.755Z,22.11
2023-05-08T01:08:33.563Z,22.11
2023-05-08T01:11:12.039Z,22.09
2023-05-08T01:13:52.280Z,22.09
2023-05-08T01:16:32.443Z,22.09
2023-05-08T01:19:30.767Z,22.09
2023-05-08T01:22:03.473Z,22.06
2023-05-08T01:24:55.459Z,22.06
2023-05-08T01:27:46.792Z,22.05
2023-05-08T01:30:31.932Z,22.05
2023-05-08T01:33:21.772Z,22.03
2023-05-08T01:35:52.045Z,22.03
2023-05-08T01:38:19.155Z,22.03
2023-05-08T01:40:53.053Z,22.02
2023-05-08T01:43:45.879Z,22.01
2023-05-08T01:46:18.585Z,21.99
2023-05-08T01:49:12.412Z,22.00
2023-05-08T01:51:44.888Z,21.98
2023-05-08T01:54:17.734Z,21.96
2023-05-08T01:56:45.001Z,21.96
2023-05-08T01:59:14.119Z,21.96
2023-05-08T02:01:41.023Z,21.96
2023-05-08T02:04:09.207Z,21.96
2023-05-08T02:06:36.036Z,21.96
2023-05-08T02:09:03.007Z,21.94
2023-05-08T02:11:30.044Z,21.94
2023-05-08T02:13:56.712Z,21.93
2023-05-08T02:16:23.531Z,21.93
2023-05-08T02:18:52.346Z,21.93
2023-05-08T02:21:18.996Z,21.93
2023-05-08T02:23:45.795Z,21.92
2023-05-08T02:26:14.235Z,21.91
2023-05-08T02:28:40.853Z,21.90
2023-05-08T02:31:08.019Z,21.91
2023-05-08T02:33:34.643Z,21.89
2023-05-08T02:36:03.091Z,21.89
2023-05-08T02:38:29.672Z,21.90
2023-05-08T02:40:58.405Z,21.89
2023-05-08T02:43:25.185Z,21.88
2023-05-08T02:46:14.356Z,21.88
2023-05-08T02:48:40.871Z,21.88
2023-05-08T02:51:29.745Z,21.86
2023-05-08T02:53:59.695Z,21.85
2023-05-08T02:57:18.230Z,21.86
2023-05-08T03:00:20.321Z,21.85
2023-05-08T03:02:53.669Z,21.84
2023-05-08T03:05:25.221Z,21.84
2023-05-08T03:07:53.869Z,21.84
2023-05-08T03:10:22.026Z,21.83
2023-05-08T03:12:49.794Z,21.83
2023-05-08T03:15:27.018Z,21.82
2023-05-08T03:18:00.968Z,21.82
2023-05-08T03:20:27.864Z,21.83
2023-05-08T03:22:54.517Z,21.82
2023-05-08T03:25:21.462Z,21.82
2023-05-08T03:27:49.743Z,21.81
2023-05-08T03:30:16.329Z,21.81
2023-05-08T03:32:44.642Z,21.81
2023-05-08T03:35:11.297Z,21.81
2023-05-08T03:37:38.047Z,21.80
2023-05-08T03:40:04.842Z,21.80
2023-05-08T03:42:31.865Z,21.79
2023-05-08T03:44:58.774Z,21.79
2023-05-08T03:47:28.183Z,21.78
2023-05-08T03:49:55.015Z,21.78
2023-05-08T03:52:21.645Z,21.78
2023-05-08T03:54:48.259Z,21.77
2023-05-08T03:57:14.940Z,21.77
2023-05-08T04:00:19.846Z,21.77
2023-05-08T04:03:04.039Z,21.76
2023-05-08T04:05:34.915Z,21.76
2023-05-08T04:08:07.531Z,21.75
2023-05-08T04:10:38.391Z,21.75
2023-05-08T04:13:11.162Z,21.74
2023-05-08T04:15:52.400Z,21.73
2023-05-08T04:18:22.629Z,21.73
2023-05-08T04:20:49.222Z,21.73
2023-05-08T04:23:18.076Z,21.73
2023-05-08T04:25:44.846Z,21.72
2023-05-08T04:28:11.934Z,21.72
2023-05-08T04:30:39.714Z,21.72
2023-05-08T04:33:06.595Z,21.71
2023-05-08T04:35:34.045Z,21.72
2023-05-08T04:38:03.278Z,21.72
2023-05-08T04:40:29.895Z,21.72
2023-05-08T04:42:56.501Z,21.70
2023-05-08T04:45:23.151Z,21.71
2023-05-08T04:47:49.841Z,21.69
2023-05-08T04:50:16.551Z,21.70
2023-05-08T04:52:43.188Z,21.71
2023-05-08T04:55:10.381Z,21.69
2023-05-08T04:57:37.301Z,21.70
2023-05-08T05:00:05.125Z,21.71
2023-05-08T05:02:31.740Z,21.77
2023-05-08T05:04:58.996Z,21.92
2023-05-08T05:07:25.663Z,21.87
2023-05-08T05:09:52.594Z,22.02
2023-05-08T05:12:19.161Z,22.13
2023-05-08T05:14:45.936Z,22.27
2023-05-08T05:17:12.554Z,22.36
2023-05-08T05:19:39.221Z,22.35
2023-05-08T05:22:08.166Z,22.42
2023-05-08T05:24:37.886Z,22.39
2023-05-08T05:27:04.676Z,22.51
2023-05-08T05:29:31.325Z,22.66
2023-05-08T05:31:57.969Z,22.62
2023-05-08T05:34:24.705Z,22.74
2023-05-08T05:36:51.308Z,22.81
2023-05-08T05:39:17.927Z,22.78
2023-05-08T05:41:44.769Z,22.75
2023-05-08T05:44:11.607Z,22.79
2023-05-08T05:46:38.443Z,22.81
2023-05-08T05:49:05.128Z,22.75
2023-05-08T05:51:31.728Z,22.81
2023-05-08T05:53:58.291Z,22.82
2023-05-08T05:56:25.059Z,22.84
2023-05-08T05:58:51.830Z,22.89
2023-05-08T06:01:18.463Z,22.97
2023-05-08T06:03:45.134Z,22.99
2023-05-08T06:06:14.260Z,23.04
2023-05-08T06:08:40.984Z,23.12
2023-05-08T06:11:07.719Z,23.09
2023-05-08T06:13:37.025Z,23.04
2023-05-08T06:16:03.696Z,22.92
2023-05-08T06:18:30.333Z,22.90
2023-05-08T06:20:59.953Z,22.92
2023-05-08T06:23:27.112Z,22.98
2023-05-08T06:25:54.150Z,23.02
2023-05-08T06:28:22.549Z,23.07
2023-05-08T06:30:49.315Z,23.13
2023-05-08T06:33:15.995Z,23.16
2023-05-08T06:35:46.431Z,23.19
2023-05-08T06:38:13.095Z,23.22
2023-05-08T06:40:46.042Z,23.24
2023-05-08T06:43:12.989Z,23.27
2023-05-08T06:45:40.213Z,23.31
2023-05-08T06:48:07.074Z,23.41
2023-05-08T06:50:33.815Z,23.47
2023-05-08T06:53:00.454Z,23.55
2023-05-08T06:55:27.154Z,23.57
2023-05-08T06:57:53.749Z,23.59
2023-05-08T07:00:23.262Z,23.61
2023-05-08T07:02:49.951Z,23.67
2023-05-08T07:05:20.580Z,23.66
2023-05-08T07:07:47.348Z,23.67
2023-05-08T07:10:14.263Z,23.64
2023-05-08T07:12:44.489Z,23.59
2023-05-08T07:15:24.762Z,23.54
2023-05-08T07:17:58.546Z,23.49
2023-05-08T07:20:25.290Z,23.44
2023-05-08T07:22:54.281Z,23.43
2023-05-08T07:25:21.010Z,23.40
2023-05-08T07:27:47.578Z,23.39
2023-05-08T07:30:14.752Z,23.41
2023-05-08T07:32:41.480Z,23.41
2023-05-08T07:35:11.103Z,23.41
2023-05-08T07:37:39.217Z,23.38
2023-05-08T07:40:06.814Z,23.37
2023-05-08T07:42:39.713Z,23.35
2023-05-08T07:45:07.849Z,23.35
2023-05-08T07:47:48.285Z,23.34
2023-05-08T07:50:15.240Z,23.35
2023-05-08T07:52:41.896Z,23.32
2023-05-08T07:55:08.980Z,23.32
2023-05-08T07:57:42.710Z,23.33
2023-05-08T08:00:13.666Z,23.35
2023-05-08T08:02:40.980Z,23.35
2023-05-08T08:05:11.047Z,23.36
2023-05-08T08:07:37.933Z,23.35
2023-05-08T08:10:04.999Z,23.36
2023-05-08T08:12:32.108Z,23.34
2023-05-08T08:15:01.411Z,23.35
2023-05-08T08:17:28.939Z,23.36
2023-05-08T08:19:58.783Z,23.34
2023-05-08T08:22:25.867Z,23.33
2023-05-08T08:24:55.145Z,23.32
2023-05-08T08:27:22.257Z,23.31
2023-05-08T08:29:48.854Z,23.30
2023-05-08T08:32:15.614Z,23.29
2023-05-08T08:34:42.350Z,23.29
2023-05-08T08:37:09.223Z,23.31
2023-05-08T08:39:36.059Z,23.36
2023-05-08T08:42:02.731Z,23.36
2023-05-08T08:44:30.208Z,23.36
2023-05-08T08:46:58.319Z,23.37
2023-05-08T08:49:29.709Z,23.37
2023-05-08T08:52:12.011Z,23.38
2023-05-08T08:54:38.870Z,23.39
2023-05-08T08:57:07.995Z,23.38
2023-05-08T08:59:34.691Z,23.37
2023-05-08T09:02:05.178Z,23.35
2023-05-08T09:04:32.290Z,23.37
2023-05-08T09:06:58.915Z,23.35
2023-05-08T09:09:25.841Z,23.41
2023-05-08T09:11:52.557Z,23.39
2023-05-08T09:14:19.193Z,23.38
2023-05-08T09:16:45.869Z,23.39
2023-05-08T09:19:14.280Z,23.40
2023-05-08T09:21:41.390Z,23.41
2023-05-08T09:24:08.069Z,23.43
2023-05-08T09:26:36.075Z,23.45
2023-05-08T09:29:16.453Z,23.45
2023-05-08T09:31:44.649Z,23.47
2023-05-08T09:34:23.590Z,23.47
2023-05-08T09:36:54.151Z,23.47
2023-05-08T09:39:27.383Z,23.50
2023-05-08T09:42:01.267Z,23.52
2023-05-08T09:44:30.365Z,23.52
2023-05-08T09:47:16.642Z,23.54
2023-05-08T09:50:01.758Z,23.54
2023-05-08T09:52:35.793Z,23.52
2023-05-08T09:55:06.931Z,23.54
2023-05-08T09:57:40.466Z,23.55
2023-05-08T10:00:09.927Z,23.58
2023-05-08T10:02:39.671Z,23.56
2023-05-08T10:05:25.284Z,23.55
2023-05-08T10:07:52.181Z,23.58
2023-05-08T10:10:28.211Z,23.61
2023-05-08T10:12:55.560Z,23.61
2023-05-08T10:15:24.468Z,23.61
2023-05-08T10:17:55.660Z,23.60
2023-05-08T10:20:22.347Z,23.64
2023-05-08T10:22:49.368Z,23.64
2023-05-08T10:25:20.378Z,23.61
2023-05-08T10:28:16.524Z,23.62
2023-05-08T10:30:47.676Z,23.61
2023-05-08T10:33:15.572Z,23.59
2023-05-08T10:35:42.302Z,23.58
2023-05-08T10:38:09.698Z,23.58
2023-05-08T10:40:36.638Z,23.54
2023-05-08T10:43:03.506Z,23.53
2023-05-08T10:45:30.702Z,23.54
2023-05-08T10:48:09.165Z,23.52
2023-05-08T10:50:44.737Z,23.52
2023-05-08T10:53:17.668Z,23.50
2023-05-08T10:55:46.095Z,23.52
2023-05-08T10:58:15.186Z,23.52
2023-05-08T11:00:54.033Z,23.51
2023-05-08T11:03:31.409Z,23.56
2023-05-08T11:05:59.936Z,23.56
2023-05-08T11:08:27.840Z,23.53
2023-05-08T11:11:00.740Z,23.52
2023-05-08T11:13:53.501Z,23.50
2023-05-08T11:16:55.202Z,23.48
2023-05-08T11:19:22.826Z,23.47
2023-05-08T11:22:27.006Z,23.44
2023-05-08T11:25:06.818Z,23.45
2023-05-08T11:27:36.423Z,23.44
2023-05-08T11:30:35.105Z,23.44
2023-05-08T11:33:05.115Z,23.40
2023-05-08T11:35:50.681Z,23.38
2023-05-08T11:38:24.408Z,23.37
2023-05-08T11:41:19.481Z,23.35
2023-05-08T11:43:59.306Z,23.33
2023-05-08T11:46:35.511Z,23.32
2023-05-08T11:49:02.318Z,23.31
2023-05-08T11:51:33.078Z,23.34
2023-05-08T11:54:08.120Z,23.33
2023-05-08T11:56:35.103Z,23.32
2023-05-08T11:59:13.141Z,23.30
2023-05-08T12:01:39.753Z,23.30
2023-05-08T12:04:07.841Z,23.29
2023-05-08T12:06:35.478Z,23.31
2023-05-08T12:09:02.164Z,23.31
2023-05-08T12:11:28.839Z,23.32
2023-05-08T12:13:55.541Z,23.33
2023-05-08T12:16:25.905Z,23.35
2023-05-08T12:18:53.057Z,23.28
2023-05-08T12:21:19.886Z,23.27
2023-05-08T12:23:46.626Z,23.28
2023-05-08T12:26:13.311Z,23.27
2023-05-08T12:28:40.896Z,23.27
2023-05-08T12:31:07.776Z,23.26
2023-05-08T12:33:34.403Z,23.23
2023-05-08T12:36:01.248Z,23.22
2023-05-08T12:38:27.964Z,23.21
2023-05-08T12:40:57.811Z,23.22
2023-05-08T12:43:34.696Z,23.19
2023-05-08T12:46:01.820Z,23.18
2023-05-08T12:48:28.836Z,23.19
2023-05-08T12:50:55.538Z,23.18
2023-05-08T12:53:22.316Z,23.14
2023-05-08T12:55:56.977Z,23.17
2023-05-08T12:58:27.756Z,23.14
2023-05-08T13:01:30.688Z,23.14
2023-05-08T13:04:02.204Z,23.14
2023-05-08T13:06:29.797Z,23.11
2023-05-08T13:08:56.526Z,23.08
2023-05-08T13:11:33.384Z,23.08
2023-05-08T13:14:00.377Z,23.07
2023-05-08T13:16:27.026Z,23.07
2023-05-08T13:18:53.725Z,23.06
2023-05-08T13:21:22.579Z,23.08
2023-05-08T13:23:49.236Z,23.09
2023-05-08T13:26:16.022Z,23.07
2023-05-08T13:28:42.655Z,23.07
2023-05-08T13:31:09.281Z,23.06
2023-05-08T13:33:40.516Z,23.05
2023-05-08T13:36:07.288Z,23.03
2023-05-08T13:38:34.743Z,22.98
2023-05-08T13:41:01.414Z,22.94
2023-05-08T13:43:28.077Z,22.93
2023-05-08T13:45:54.781Z,22.94
2023-05-08T13:48:21.429Z,22.93
2023-05-08T13:50:48.167Z,22.93
2023-05-08T13:53:14.764Z,22.95
2023-05-08T13:55:42.347Z,22.94
2023-05-08T13:58:09.144Z,22.93
2023-05-08T14:00:35.896Z,22.94
2023-05-08T14:03:03.104Z,22.94
2023-05-08T14:05:29.806Z,22.93
2023-05-08T14:07:56.602Z,22.93
2023-05-08T14:10:23.244Z,22.95
2023-05-08T14:12:49.991Z,22.96
2023-05-08T14:15:16.953Z,22.99
2023-05-08T14:17:44.177Z,23.00
2023-05-08T14:20:12.159Z,23.02
2023-05-08T14:22:39.337Z,23.04
2023-05-08T14:25:12.755Z,23.04
2023-05-08T14:27:39.631Z,23.06
2023-05-08T14:30:06.980Z,23.07
2023-05-08T14:32:33.621Z,23.07
2023-05-08T14:35:00.580Z,23.08
2023-05-08T14:37:27.204Z,23.08
2023-05-08T14:39:56.109Z,23.09
2023-05-08T14:42:23.798Z,23.10
2023-05-08T14:44:51.115Z,23.16
2023-05-08T14:47:17.798Z,23.15
2023-05-08T14:49:47.049Z,23.14
2023-05-08T14:52:13.720Z,23.14
2023-05-08T14:54:40.629Z,23.13
2023-05-08T14:57:07.461Z,23.13
2023-05-08T14:59:34.083Z,23.13
2023-05-08T15:02:00.996Z,23.13
2023-05-08T15:04:27.724Z,23.12
2023-05-08T15:06:54.338Z,23.14
2023-05-08T15:09:21.082Z,23.13
2023-05-08T15:11:47.959Z,23.14
2023-05-08T15:14:14.596Z,23.13
2023-05-08T15:16:41.467Z,23.13
2023-05-08T15:19:09.518Z,23.14
2023-05-08T15:21:36.469Z,23.16
2023-05-08T15:24:03.066Z,23.15
2023-05-08T15:26:29.811Z,23.16
2023-05-08T15:28:56.446Z,23.16
2023-05-08T15:31:23.106Z,23.15
2023-05-08T15:33:49.719Z,23.15
2023-05-08T15:36:16.386Z,23.16
2023-05-08T15:38:43.675Z,23.15
2023-05-08T15:41:14.549Z,23.15
2023-05-08T15:43:41.946Z,23.15
2023-05-08T15:46:08.550Z,23.14
2023-05-08T15:48:35.418Z,23.16
2023-05-08T15:51:02.072Z,23.19
2023-05-08T15:53:31.315Z,23.19
2023-05-08T15:55:58.128Z,23.19
2023-05-08T15:58:24.853Z,23.20
2023-05-08T16:00:51.853Z,23.19
2023-05-08T16:03:19.218Z,23.19
2023-05-08T16:05:46.086Z,23.20
2023-05-08T16:08:13.688Z,23.18
2023-05-08T16:10:41.275Z,23.19
2023-05-08T16:13:09.334Z,23.19
2023-05-08T16:15:36.228Z,23.19
2023-05-08T16:18:03.010Z,23.19
2023-05-08T16:20:29.815Z,23.20
2023-05-08T16:22:56.481Z,23.19
2023-05-08T16:25:23.206Z,23.18
2023-05-08T16:27:50.304Z,23.18
2023-05-08T16:30:17.562Z,23.18
2023-05-08T16:32:47.005Z,23.17
2023-05-08T16:35:14.264Z,23.17
2023-05-08T16:37:41.395Z,23.17
2023-05-08T16:40:08.690Z,23.17
2023-05-08T16:42:38.022Z,23.17
2023-05-08T16:45:05.226Z,23.17
2023-05-08T16:47:32.163Z,23.16
2023-05-08T16:49:59.320Z,23.17
2023-05-08T16:52:26.283Z,23.16
2023-05-08T16:54:53.128Z,23.15
2023-05-08T16:57:19.818Z,23.16
2023-05-08T16:59:46.435Z,23.16
2023-05-08T17:02:18.665Z,23.14
2023-05-08T17:04:46.936Z,23.15
2023-05-08T17:07:14.426Z,23.13
2023-05-08T17:09:41.068Z,23.13
2023-05-08T17:12:07.962Z,23.14
2023-05-08T17:14:35.186Z,23.14
2023-05-08T17:17:03.867Z,23.14
2023-05-08T17:19:31.121Z,23.12
2023-05-08T17:21:59.570Z,23.12
2023-05-08T17:24:26.515Z,23.12
2023-05-08T17:26:53.226Z,23.11
2023-05-08T17:29:20.004Z,23.12
2023-05-08T17:31:46.755Z,23.11
2023-05-08T17:34:13.580Z,23.11
2023-05-08T17:36:40.399Z,23.10
2023-05-08T17:39:07.031Z,23.10
2023-05-08T17:41:33.817Z,23.08
2023-05-08T17:44:00.604Z,23.08
2023-05-08T17:46:34.665Z,23.08
2023-05-08T17:49:01.391Z,23.07
2023-05-08T17:51:28.100Z,23.07
2023-05-08T17:53:56.527Z,23.06
2023-05-08T17:56:23.397Z,23.05
2023-05-08T17:58:50.655Z,23.05
2023-05-08T18:01:17.343Z,23.04
2023-05-08T18:03:45.264Z,23.03
2023-05-08T18:06:16.193Z,23.02
2023-05-08T18:08:42.994Z,23.02
2023-05-08T18:11:17.620Z,23.00
2023-05-08T18:13:44.268Z,23.00
2023-05-08T18:16:13.622Z,22.99
2023-05-08T18:18:40.252Z,22.97
2023-05-08T18:21:06.888Z,22.96
2023-05-08T18:23:33.639Z,22.96
2023-05-08T18:26:00.362Z,22.95
2023-05-08T18:28:27.499Z,22.94
2023-05-08T18:30:54.182Z,22.94
2023-05-08T18:33:21.176Z,22.92
2023-05-08T18:35:47.882Z,22.92
2023-05-08T18:38:16.774Z,22.92
2023-05-08T18:40:44.142Z,22.91
2023-05-08T18:43:11.012Z,22.89
2023-05-08T18:45:44.201Z,22.89
2023-05-08T18:48:11.395Z,22.89
2023-05-08T18:50:38.158Z,22.88
2023-05-08T18:53:04.810Z,22.86
2023-05-08T18:55:31.502Z,22.86
2023-05-08T18:57:58.205Z,22.84
2023-05-08T19:00:25.047Z,22.84
2023-05-08T19:02:51.928Z,22.83
2023-05-08T19:05:19.962Z,22.83
2023-05-08T19:07:46.716Z,22.82
2023-05-08T19:10:13.562Z,22.81
2023-05-08T19:12:40.470Z,22.80
2023-05-08T19:15:09.477Z,22.79
2023-05-08T19:17:39.071Z,22.79
2023-05-08T19:20:06.366Z,22.78
2023-05-08T19:22:35.197Z,22.77
2023-05-08T19:25:02.747Z,22.76
2023-05-08T19:27:29.404Z,22.75
2023-05-08T19:29:56.154Z,22.74
2023-05-08T19:32:22.855Z,22.73
2023-05-08T19:34:49.704Z,22.73
2023-05-08T19:37:16.407Z,22.71
2023-05-08T19:39:43.028Z,22.74
2023-05-08T19:42:11.463Z,22.72
2023-05-08T19:44:41.689Z,22.69
2023-05-08T19:47:08.325Z,22.70
2023-05-08T19:49:35.083Z,22.70
2023-05-08T19:52:02.440Z,22.68
2023-05-08T19:54:29.897Z,22.68
2023-05-08T19:56:56.676Z,22.66
2023-05-08T19:59:23.448Z,22.65
2023-05-08T20:01:53.875Z,22.64
2023-05-08T20:04:20.682Z,22.65
2023-05-08T20:06:47.426Z,22.63
2023-05-08T20:09:14.067Z,22.62
2023-05-08T20:11:40.881Z,22.62
2023-05-08T20:14:07.495Z,22.62
2023-05-08T20:16:34.164Z,22.60
2023-05-08T20:19:01.748Z,22.59
2023-05-08T20:21:33.967Z,22.60
2023-05-08T20:24:00.985Z,22.59
2023-05-08T20:26:28.385Z,22.58
2023-05-08T20:28:55.493Z,22.58
2023-05-08T20:31:24.588Z,22.57
2023-05-08T20:33:51.481Z,22.56
2023-05-08T20:36:18.194Z,22.55
2023-05-08T20:38:44.891Z,22.54
2023-05-08T20:41:11.627Z,22.54
2023-05-08T20:43:38.208Z,22.52
2023-05-08T20:46:05.040Z,22.51
2023-05-08T20:48:31.640Z,22.52
2023-05-08T20:50:58.246Z,22.51
2023-05-08T20:53:24.842Z,22.49
2023-05-08T20:55:51.577Z,22.49
2023-05-08T20:58:18.202Z,22.47
2023-05-08T21:00:44.929Z,22.48
2023-05-08T21:03:11.731Z,22.47
2023-05-08T21:05:38.426Z,22.46
2023-05-08T21:08:06.199Z,22.46
2023-05-08T21:10:33.034Z,22.45
2023-05-08T21:12:59.742Z,22.45
2023-05-08T21:15:26.627Z,22.43
2023-05-08T21:17:54.251Z,22.42
2023-05-08T21:20:21.346Z,22.42
2023-05-08T21:22:48.104Z,22.41
2023-05-08T21:25:15.786Z,22.41
2023-05-08T21:27:43.127Z,22.40
2023-05-08T21:30:14.998Z,22.39
2023-05-08T21:32:42.894Z,22.38
2023-05-08T21:35:10.594Z,22.38
2023-05-08T21:37:37.971Z,22.37
2023-05-08T21:40:05.238Z,22.37
2023-05-08T21:42:32.398Z,22.36
2023-05-08T21:44:59.246Z,22.35
2023-05-08T21:47:28.505Z,22.33
2023-05-08T21:49:55.345Z,22.34
2023-05-08T21:52:22.540Z,22.33
2023-05-08T21:54:52.877Z,22.32
2023-05-08T21:57:19.534Z,22.32
2023-05-08T21:59:46.166Z,22.30
2023-05-08T22:02:13.176Z,22.28
2023-05-08T22:04:39.929Z,22.28
2023-05-08T22:07:06.667Z,22.27
2023-05-08T22:09:33.238Z,22.27
2023-05-08T22:11:59.873Z,22.25
2023-05-08T22:14:29.058Z,22.26
2023-05-08T22:16:55.703Z,22.25
2023-05-08T22:19:22.435Z,22.24
2023-05-08T22:21:49.000Z,22.24
2023-05-08T22:24:15.974Z,22.22
2023-05-08T22:26:42.630Z,22.22
2023-05-08T22:29:09.287Z,22.22
2023-05-08T22:31:35.909Z,22.21
2023-05-08T22:34:02.573Z,22.19
2023-05-08T22:36:29.265Z,22.18
2023-05-08T22:38:56.243Z,22.19
2023-05-08T22:41:23.688Z,22.18
2023-05-08T22:43:50.521Z,22.18
2023-05-08T22:46:17.370Z,22.17
2023-05-08T22:48:44.517Z,22.17
2023-05-08T22:51:11.202Z,22.15
2023-05-08T22:53:37.929Z,22.15
2023-05-08T22:56:04.780Z,22.15
2023-05-08T22:58:34.148Z,22.13
2023-05-08T23:01:01.157Z,22.13
2023-05-08T23:03:27.862Z,22.12
2023-05-08T23:05:56.672Z,22.11
2023-05-08T23:08:23.368Z,22.11
2023-05-08T23:10:49.952Z,22.10
2023-05-08T23:13:16.735Z,22.09
2023-05-08T23:15:43.389Z,22.08
2023-05-08T23:18:10.123Z,22.07
2023-05-08T23:20:36.813Z,22.07
2023-05-08T23:23:05.794Z,22.07
2023-05-08T23:25:32.418Z,22.06
2023-05-08T23:27:59.060Z,22.05
2023-05-08T23:30:26.309Z,22.04
2023-05-08T23:32:53.550Z,22.04
2023-05-08T23:35:20.305Z,22.04
2023-05-08T23:37:47.057Z,22.03
2023-05-08T23:40:13.842Z,22.01
2023-05-08T23:42:40.477Z,22.02
2023-05-08T23:45:07.901Z,22.01
2023-05-08T23:47:34.660Z,21.98
2023-05-08T23:50:01.378Z,21.98
2023-05-08T23:52:28.022Z,21.99
2023-05-08T23:54:57.274Z,21.97
2023-05-08T23:57:24.007Z,21.96
2023-05-08T23:59:50.670Z,21.96
